sensor_id;sensor_type;location;lat;lon;timestamp;temperature;humidity
22069;DHT22;13887;57.196;-2.100;2022-12-10T00:01:18;2.83;87.91
22069;DHT22;13887;57.196;-2.100;2022-12-10T00:03:45;2.84;87.92
22069;DHT22;13887;57.196;-2.100;2022-12-10T00:06:16;2.83;87.99
22069;DHT22;13887;57.196;-2.100;2022-12-10T00:08:43;2.83;87.99
22069;DHT22;13887;57.196;-2.100;2022-12-10T00:11:12;2.82;87.95
22069;DHT22;13887;57.196;-2.100;2022-12-10T00:13:40;2.82;87.97
22069;DHT22;13887;57.196;-2.100;2022-12-10T00:16:09;2.81;87.96
22069;DHT22;13887;57.196;-2.100;2022-12-10T00:18:37;2.80;88.04
22069;DHT22;13887;57.196;-2.100;2022-12-10T00:21:09;2.81;87.96
22069;DHT22;13887;57.196;-2.100;2022-12-10T00:23:38;2.82;88.02
22069;DHT22;13887;57.196;-2.100;2022-12-10T00:26:20;2.84;87.99
22069;DHT22;13887;57.196;-2.100;2022-12-10T00:28:48;2.85;87.97
22069;DHT22;13887;57.196;-2.100;2022-12-10T00:31:21;2.85;87.89
22069;DHT22;13887;57.196;-2.100;2022-12-10T00:33:48;2.85;88.11
22069;DHT22;13887;57.196;-2.100;2022-12-10T00:36:18;2.85;88.07
22069;DHT22;13887;57.196;-2.100;2022-12-10T00:38:46;2.85;88.06
22069;DHT22;13887;57.196;-2.100;2022-12-10T00:41:14;2.87;87.98
22069;DHT22;13887;57.196;-2.100;2022-12-10T00:43:41;2.87;88.04
22069;DHT22;13887;57.196;-2.100;2022-12-10T00:46:11;2.87;88.02
22069;DHT22;13887;57.196;-2.100;2022-12-10T00:48:39;2.87;88.08
22069;DHT22;13887;57.196;-2.100;2022-12-10T00:51:13;2.89;88.08
22069;DHT22;13887;57.196;-2.100;2022-12-10T00:53:42;2.89;88.00
22069;DHT22;13887;57.196;-2.100;2022-12-10T00:56:11;2.89;88.14
22069;DHT22;13887;57.196;-2.100;2022-12-10T00:58:39;2.91;88.06
22069;DHT22;13887;57.196;-2.100;2022-12-10T01:01:12;2.89;88.22
22069;DHT22;13887;57.196;-2.100;2022-12-10T01:03:39;2.89;88.27
22069;DHT22;13887;57.196;-2.100;2022-12-10T01:06:12;2.89;88.35
22069;DHT22;13887;57.196;-2.100;2022-12-10T01:08:41;2.89;88.50
22069;DHT22;13887;57.196;-2.100;2022-12-10T01:11:10;2.90;88.47
22069;DHT22;13887;57.196;-2.100;2022-12-10T01:13:38;2.91;88.39
22069;DHT22;13887;57.196;-2.100;2022-12-10T01:16:07;2.89;88.43
22069;DHT22;13887;57.196;-2.100;2022-12-10T01:18:34;2.89;88.41
22069;DHT22;13887;57.196;-2.100;2022-12-10T01:21:03;2.88;88.46
22069;DHT22;13887;57.196;-2.100;2022-12-10T01:23:32;2.89;88.36
22069;DHT22;13887;57.196;-2.100;2022-12-10T01:26:05;2.89;88.35
22069;DHT22;13887;57.196;-2.100;2022-12-10T01:28:35;2.88;88.28
22069;DHT22;13887;57.196;-2.100;2022-12-10T01:31:04;2.87;88.31
22069;DHT22;13887;57.196;-2.100;2022-12-10T01:33:32;2.87;88.32
22069;DHT22;13887;57.196;-2.100;2022-12-10T01:36:08;2.87;88.39
22069;DHT22;13887;57.196;-2.100;2022-12-10T01:38:36;2.85;88.41
22069;DHT22;13887;57.196;-2.100;2022-12-10T01:41:05;2.87;88.37
22069;DHT22;13887;57.196;-2.100;2022-12-10T01:46:18;2.86;88.41
22069;DHT22;13887;57.196;-2.100;2022-12-10T01:48:45;2.87;88.35
22069;DHT22;13887;57.196;-2.100;2022-12-10T01:51:14;2.87;88.35
22069;DHT22;13887;57.196;-2.100;2022-12-10T01:53:42;2.87;88.35
22069;DHT22;13887;57.196;-2.100;2022-12-10T01:56:10;2.87;88.41
22069;DHT22;13887;57.196;-2.100;2022-12-10T01:58:38;2.89;88.41
22069;DHT22;13887;57.196;-2.100;2022-12-10T02:01:16;2.91;88.40
22069;DHT22;13887;57.196;-2.100;2022-12-10T02:06:45;2.93;88.22
22069;DHT22;13887;57.196;-2.100;2022-12-10T02:09:38;2.95;88.18
22069;DHT22;13887;57.196;-2.100;2022-12-10T02:14:56;2.90;88.50
22069;DHT22;13887;57.196;-2.100;2022-12-10T02:20:10;2.94;88.32
22069;DHT22;13887;57.196;-2.100;2022-12-10T02:22:49;2.94;88.38
22069;DHT22;13887;57.196;-2.100;2022-12-10T02:25:20;2.96;88.35
22069;DHT22;13887;57.196;-2.100;2022-12-10T02:30:31;2.94;88.35
22069;DHT22;13887;57.196;-2.100;2022-12-10T02:33:01;2.95;88.35
22069;DHT22;13887;57.196;-2.100;2022-12-10T02:35:33;2.97;88.25
22069;DHT22;13887;57.196;-2.100;2022-12-10T02:38:16;2.97;88.31
22069;DHT22;13887;57.196;-2.100;2022-12-10T02:40:47;2.97;88.24
22069;DHT22;13887;57.196;-2.100;2022-12-10T02:43:15;2.97;88.17
22069;DHT22;13887;57.196;-2.100;2022-12-10T02:45:44;2.97;88.34
22069;DHT22;13887;57.196;-2.100;2022-12-10T02:48:13;2.95;88.43
22069;DHT22;13887;57.196;-2.100;2022-12-10T02:50:42;2.94;88.55
22069;DHT22;13887;57.196;-2.100;2022-12-10T02:53:09;2.91;88.64
22069;DHT22;13887;57.196;-2.100;2022-12-10T02:56:08;2.91;88.83
22069;DHT22;13887;57.196;-2.100;2022-12-10T03:01:59;2.93;88.62
22069;DHT22;13887;57.196;-2.100;2022-12-10T03:07:14;2.93;88.70
22069;DHT22;13887;57.196;-2.100;2022-12-10T03:09:54;2.96;88.62
22069;DHT22;13887;57.196;-2.100;2022-12-10T03:12:28;2.97;88.54
22069;DHT22;13887;57.196;-2.100;2022-12-10T03:15:01;2.97;88.44
22069;DHT22;13887;57.196;-2.100;2022-12-10T03:17:31;2.97;88.42
22069;DHT22;13887;57.196;-2.100;2022-12-10T03:20:00;2.96;88.52
22069;DHT22;13887;57.196;-2.100;2022-12-10T03:22:28;2.99;88.37
22069;DHT22;13887;57.196;-2.100;2022-12-10T03:24:57;2.98;88.44
22069;DHT22;13887;57.196;-2.100;2022-12-10T03:27:24;2.99;88.50
22069;DHT22;13887;57.196;-2.100;2022-12-10T03:29:53;2.99;88.55
22069;DHT22;13887;57.196;-2.100;2022-12-10T03:32:23;3.00;88.48
22069;DHT22;13887;57.196;-2.100;2022-12-10T03:34:53;3.02;88.64
22069;DHT22;13887;57.196;-2.100;2022-12-10T03:37:21;3.04;88.54
22069;DHT22;13887;57.196;-2.100;2022-12-10T03:39:49;3.04;88.74
22069;DHT22;13887;57.196;-2.100;2022-12-10T03:42:17;3.04;88.73
22069;DHT22;13887;57.196;-2.100;2022-12-10T03:44:44;3.04;88.89
22069;DHT22;13887;57.196;-2.100;2022-12-10T03:47:13;3.03;88.91
22069;DHT22;13887;57.196;-2.100;2022-12-10T03:49:42;3.02;89.06
22069;DHT22;13887;57.196;-2.100;2022-12-10T03:52:09;3.03;89.18
22069;DHT22;13887;57.196;-2.100;2022-12-10T03:54:36;3.05;89.25
22069;DHT22;13887;57.196;-2.100;2022-12-10T03:57:03;3.05;89.17
22069;DHT22;13887;57.196;-2.100;2022-12-10T03:59:31;3.04;89.15
22069;DHT22;13887;57.196;-2.100;2022-12-10T04:01:57;3.04;89.11
22069;DHT22;13887;57.196;-2.100;2022-12-10T04:04:25;3.03;89.15
22069;DHT22;13887;57.196;-2.100;2022-12-10T04:06:51;3.02;89.29
22069;DHT22;13887;57.196;-2.100;2022-12-10T04:09:18;3.01;89.25
22069;DHT22;13887;57.196;-2.100;2022-12-10T04:11:45;3.01;89.37
22069;DHT22;13887;57.196;-2.100;2022-12-10T04:14:13;3.01;89.42
22069;DHT22;13887;57.196;-2.100;2022-12-10T04:16:59;2.99;89.52
22069;DHT22;13887;57.196;-2.100;2022-12-10T04:19:26;2.99;89.72
22069;DHT22;13887;57.196;-2.100;2022-12-10T04:21:53;3.02;89.52
22069;DHT22;13887;57.196;-2.100;2022-12-10T04:24:38;3.03;89.59
22069;DHT22;13887;57.196;-2.100;2022-12-10T04:27:32;2.99;89.86
22069;DHT22;13887;57.196;-2.100;2022-12-10T04:30:00;3.00;89.95
22069;DHT22;13887;57.196;-2.100;2022-12-10T04:32:28;3.00;89.84
22069;DHT22;13887;57.196;-2.100;2022-12-10T04:34:56;3.05;89.60
22069;DHT22;13887;57.196;-2.100;2022-12-10T04:37:23;3.08;89.55
22069;DHT22;13887;57.196;-2.100;2022-12-10T04:39:50;3.06;89.54
22069;DHT22;13887;57.196;-2.100;2022-12-10T04:42:18;3.05;89.62
22069;DHT22;13887;57.196;-2.100;2022-12-10T04:44:45;3.04;89.75
22069;DHT22;13887;57.196;-2.100;2022-12-10T04:47:13;3.09;89.70
22069;DHT22;13887;57.196;-2.100;2022-12-10T04:49:40;3.10;89.63
22069;DHT22;13887;57.196;-2.100;2022-12-10T04:52:09;3.10;89.63
22069;DHT22;13887;57.196;-2.100;2022-12-10T04:54:37;3.12;89.54
22069;DHT22;13887;57.196;-2.100;2022-12-10T04:57:05;3.09;89.88
22069;DHT22;13887;57.196;-2.100;2022-12-10T04:59:33;3.09;89.76
22069;DHT22;13887;57.196;-2.100;2022-12-10T05:02:01;3.13;89.62
22069;DHT22;13887;57.196;-2.100;2022-12-10T05:04:28;3.18;89.38
22069;DHT22;13887;57.196;-2.100;2022-12-10T05:06:55;3.17;89.29
22069;DHT22;13887;57.196;-2.100;2022-12-10T05:09:21;3.19;89.22
22069;DHT22;13887;57.196;-2.100;2022-12-10T05:11:49;3.21;89.12
22069;DHT22;13887;57.196;-2.100;2022-12-10T05:14:16;3.26;89.85
22069;DHT22;13887;57.196;-2.100;2022-12-10T05:16:43;3.26;89.89
22069;DHT22;13887;57.196;-2.100;2022-12-10T05:19:10;3.28;89.73
22069;DHT22;13887;57.196;-2.100;2022-12-10T05:21:37;3.31;89.45
22069;DHT22;13887;57.196;-2.100;2022-12-10T05:24:23;3.28;89.15
22069;DHT22;13887;57.196;-2.100;2022-12-10T05:26:50;3.31;88.97
22069;DHT22;13887;57.196;-2.100;2022-12-10T05:29:18;3.30;88.99
22069;DHT22;13887;57.196;-2.100;2022-12-10T05:31:45;3.32;88.99
22069;DHT22;13887;57.196;-2.100;2022-12-10T05:34:13;3.33;89.04
22069;DHT22;13887;57.196;-2.100;2022-12-10T05:36:40;3.34;88.81
22069;DHT22;13887;57.196;-2.100;2022-12-10T05:39:07;3.36;88.73
22069;DHT22;13887;57.196;-2.100;2022-12-10T05:41:36;3.38;88.32
22069;DHT22;13887;57.196;-2.100;2022-12-10T05:44:04;3.36;88.10
22069;DHT22;13887;57.196;-2.100;2022-12-10T05:46:33;3.38;88.03
22069;DHT22;13887;57.196;-2.100;2022-12-10T05:49:02;3.39;88.12
22069;DHT22;13887;57.196;-2.100;2022-12-10T05:51:31;3.39;88.35
22069;DHT22;13887;57.196;-2.100;2022-12-10T05:54:00;3.40;88.46
22069;DHT22;13887;57.196;-2.100;2022-12-10T05:56:28;3.46;88.24
22069;DHT22;13887;57.196;-2.100;2022-12-10T05:58:59;3.45;88.47
22069;DHT22;13887;57.196;-2.100;2022-12-10T06:01:30;3.52;88.74
22069;DHT22;13887;57.196;-2.100;2022-12-10T06:03:59;3.49;88.88
22069;DHT22;13887;57.196;-2.100;2022-12-10T06:06:28;3.47;89.09
22069;DHT22;13887;57.196;-2.100;2022-12-10T06:08:56;3.43;89.49
22069;DHT22;13887;57.196;-2.100;2022-12-10T06:11:24;3.35;90.02
22069;DHT22;13887;57.196;-2.100;2022-12-10T06:13:54;3.32;89.70
22069;DHT22;13887;57.196;-2.100;2022-12-10T06:16:23;3.32;89.25
22069;DHT22;13887;57.196;-2.100;2022-12-10T06:18:50;3.38;88.83
22069;DHT22;13887;57.196;-2.100;2022-12-10T06:21:18;3.33;88.89
22069;DHT22;13887;57.196;-2.100;2022-12-10T06:23:48;3.35;88.64
22069;DHT22;13887;57.196;-2.100;2022-12-10T06:26:21;3.36;88.56
22069;DHT22;13887;57.196;-2.100;2022-12-10T06:28:49;3.35;88.50
22069;DHT22;13887;57.196;-2.100;2022-12-10T06:31:17;3.38;88.35
22069;DHT22;13887;57.196;-2.100;2022-12-10T06:33:44;3.35;88.37
22069;DHT22;13887;57.196;-2.100;2022-12-10T06:36:13;3.34;88.31
22069;DHT22;13887;57.196;-2.100;2022-12-10T06:38:42;3.35;88.29
22069;DHT22;13887;57.196;-2.100;2022-12-10T06:41:10;3.38;88.35
22069;DHT22;13887;57.196;-2.100;2022-12-10T06:43:38;3.38;88.54
22069;DHT22;13887;57.196;-2.100;2022-12-10T06:46:13;3.40;88.67
22069;DHT22;13887;57.196;-2.100;2022-12-10T06:48:41;3.40;88.56
22069;DHT22;13887;57.196;-2.100;2022-12-10T06:51:08;3.44;88.44
22069;DHT22;13887;57.196;-2.100;2022-12-10T06:53:36;3.44;88.68
22069;DHT22;13887;57.196;-2.100;2022-12-10T06:56:05;3.46;88.85
22069;DHT22;13887;57.196;-2.100;2022-12-10T06:58:33;3.43;89.02
22069;DHT22;13887;57.196;-2.100;2022-12-10T07:01:05;3.46;88.89
22069;DHT22;13887;57.196;-2.100;2022-12-10T07:03:33;3.46;88.76
22069;DHT22;13887;57.196;-2.100;2022-12-10T07:06:00;3.46;88.73
22069;DHT22;13887;57.196;-2.100;2022-12-10T07:08:28;3.45;88.67
22069;DHT22;13887;57.196;-2.100;2022-12-10T07:10:55;3.45;88.61
22069;DHT22;13887;57.196;-2.100;2022-12-10T07:13:23;3.48;88.62
22069;DHT22;13887;57.196;-2.100;2022-12-10T07:15:56;3.47;88.80
22069;DHT22;13887;57.196;-2.100;2022-12-10T07:18:24;3.48;88.76
22069;DHT22;13887;57.196;-2.100;2022-12-10T07:20:51;3.53;88.39
22069;DHT22;13887;57.196;-2.100;2022-12-10T07:23:18;3.49;88.15
22069;DHT22;13887;57.196;-2.100;2022-12-10T07:25:45;3.53;88.08
22069;DHT22;13887;57.196;-2.100;2022-12-10T07:28:12;3.54;88.05
22069;DHT22;13887;57.196;-2.100;2022-12-10T07:30:39;3.55;88.17
22069;DHT22;13887;57.196;-2.100;2022-12-10T07:33:06;3.55;88.25
22069;DHT22;13887;57.196;-2.100;2022-12-10T07:35:32;3.59;88.14
22069;DHT22;13887;57.196;-2.100;2022-12-10T07:37:59;3.57;88.26
22069;DHT22;13887;57.196;-2.100;2022-12-10T07:40:26;3.55;88.40
22069;DHT22;13887;57.196;-2.100;2022-12-10T07:42:53;3.57;88.10
22069;DHT22;13887;57.196;-2.100;2022-12-10T07:45:20;3.58;87.87
22069;DHT22;13887;57.196;-2.100;2022-12-10T07:47:47;3.61;87.73
22069;DHT22;13887;57.196;-2.100;2022-12-10T07:50:14;3.63;87.61
22069;DHT22;13887;57.196;-2.100;2022-12-10T07:52:40;3.68;88.00
22069;DHT22;13887;57.196;-2.100;2022-12-10T07:55:07;3.65;88.36
22069;DHT22;13887;57.196;-2.100;2022-12-10T07:57:34;3.64;87.93
22069;DHT22;13887;57.196;-2.100;2022-12-10T08:00:03;3.62;87.67
22069;DHT22;13887;57.196;-2.100;2022-12-10T08:02:37;3.62;87.24
22069;DHT22;13887;57.196;-2.100;2022-12-10T08:05:04;3.61;86.69
22069;DHT22;13887;57.196;-2.100;2022-12-10T08:07:32;3.60;86.54
22069;DHT22;13887;57.196;-2.100;2022-12-10T08:09:59;3.63;86.29
22069;DHT22;13887;57.196;-2.100;2022-12-10T08:12:25;3.62;85.98
22069;DHT22;13887;57.196;-2.100;2022-12-10T08:14:52;3.63;85.60
22069;DHT22;13887;57.196;-2.100;2022-12-10T08:17:19;3.68;85.68
22069;DHT22;13887;57.196;-2.100;2022-12-10T08:19:46;3.67;85.72
22069;DHT22;13887;57.196;-2.100;2022-12-10T08:22:14;3.67;85.88
22069;DHT22;13887;57.196;-2.100;2022-12-10T08:24:41;3.68;85.92
22069;DHT22;13887;57.196;-2.100;2022-12-10T08:27:07;3.74;86.71
22069;DHT22;13887;57.196;-2.100;2022-12-10T08:29:34;3.77;87.64
22069;DHT22;13887;57.196;-2.100;2022-12-10T08:32:01;3.78;88.81
22069;DHT22;13887;57.196;-2.100;2022-12-10T08:34:28;3.75;89.43
22069;DHT22;13887;57.196;-2.100;2022-12-10T08:36:55;3.73;89.33
22069;DHT22;13887;57.196;-2.100;2022-12-10T08:39:22;3.72;89.49
22069;DHT22;13887;57.196;-2.100;2022-12-10T08:41:49;3.70;89.73
22069;DHT22;13887;57.196;-2.100;2022-12-10T08:44:16;3.67;89.64
22069;DHT22;13887;57.196;-2.100;2022-12-10T08:46:43;3.68;89.66
22069;DHT22;13887;57.196;-2.100;2022-12-10T08:49:10;3.68;89.34
22069;DHT22;13887;57.196;-2.100;2022-12-10T08:51:36;3.68;89.05
22069;DHT22;13887;57.196;-2.100;2022-12-10T08:54:03;3.70;88.90
22069;DHT22;13887;57.196;-2.100;2022-12-10T08:56:30;3.70;88.80
22069;DHT22;13887;57.196;-2.100;2022-12-10T08:58:57;3.71;88.66
22069;DHT22;13887;57.196;-2.100;2022-12-10T09:01:24;3.71;88.52
22069;DHT22;13887;57.196;-2.100;2022-12-10T09:03:51;3.70;88.37
22069;DHT22;13887;57.196;-2.100;2022-12-10T09:06:20;3.69;88.41
22069;DHT22;13887;57.196;-2.100;2022-12-10T09:08:47;3.70;88.27
22069;DHT22;13887;57.196;-2.100;2022-12-10T09:11:20;3.72;88.15
22069;DHT22;13887;57.196;-2.100;2022-12-10T09:13:48;3.65;88.77
22069;DHT22;13887;57.196;-2.100;2022-12-10T09:16:15;3.61;89.66
22069;DHT22;13887;57.196;-2.100;2022-12-10T09:18:42;3.59;90.15
22069;DHT22;13887;57.196;-2.100;2022-12-10T09:21:12;3.58;90.18
22069;DHT22;13887;57.196;-2.100;2022-12-10T09:23:40;3.56;89.97
22069;DHT22;13887;57.196;-2.100;2022-12-10T09:26:09;3.61;89.64
22069;DHT22;13887;57.196;-2.100;2022-12-10T09:28:37;3.62;89.45
22069;DHT22;13887;57.196;-2.100;2022-12-10T09:31:05;3.65;89.50
22069;DHT22;13887;57.196;-2.100;2022-12-10T09:33:40;3.62;89.67
22069;DHT22;13887;57.196;-2.100;2022-12-10T09:36:09;3.63;89.92
22069;DHT22;13887;57.196;-2.100;2022-12-10T09:38:38;3.62;89.96
22069;DHT22;13887;57.196;-2.100;2022-12-10T09:43:59;3.63;90.16
22069;DHT22;13887;57.196;-2.100;2022-12-10T09:46:53;3.64;90.00
22069;DHT22;13887;57.196;-2.100;2022-12-10T09:52:21;3.65;89.60
22069;DHT22;13887;57.196;-2.100;2022-12-10T09:54:56;3.62;89.49
22069;DHT22;13887;57.196;-2.100;2022-12-10T09:57:29;3.65;89.57
22069;DHT22;13887;57.196;-2.100;2022-12-10T10:00:37;3.63;89.84
22069;DHT22;13887;57.196;-2.100;2022-12-10T10:03:05;3.53;90.73
22069;DHT22;13887;57.196;-2.100;2022-12-10T10:05:39;3.54;90.84
22069;DHT22;13887;57.196;-2.100;2022-12-10T10:08:27;3.57;90.47
22069;DHT22;13887;57.196;-2.100;2022-12-10T10:10:55;3.54;90.82
22069;DHT22;13887;57.196;-2.100;2022-12-10T10:16:30;3.49;90.82
22069;DHT22;13887;57.196;-2.100;2022-12-10T10:22:00;3.39;90.68
22069;DHT22;13887;57.196;-2.100;2022-12-10T10:24:41;3.33;90.64
22069;DHT22;13887;57.196;-2.100;2022-12-10T10:27:21;3.40;90.38
22069;DHT22;13887;57.196;-2.100;2022-12-10T10:29:54;3.40;90.15
22069;DHT22;13887;57.196;-2.100;2022-12-10T10:32:45;3.42;89.83
22069;DHT22;13887;57.196;-2.100;2022-12-10T10:35:32;3.40;89.83
22069;DHT22;13887;57.196;-2.100;2022-12-10T10:38:18;3.39;89.76
22069;DHT22;13887;57.196;-2.100;2022-12-10T10:40:51;3.36;89.87
22069;DHT22;13887;57.196;-2.100;2022-12-10T10:43:25;3.34;89.89
22069;DHT22;13887;57.196;-2.100;2022-12-10T10:46:04;3.38;89.67
22069;DHT22;13887;57.196;-2.100;2022-12-10T10:48:33;3.40;89.47
22069;DHT22;13887;57.196;-2.100;2022-12-10T10:56:29;3.40;89.31
22069;DHT22;13887;57.196;-2.100;2022-12-10T11:01:46;3.36;89.25
22069;DHT22;13887;57.196;-2.100;2022-12-10T11:04:16;3.36;89.13
22069;DHT22;13887;57.196;-2.100;2022-12-10T11:06:44;3.40;89.05
22069;DHT22;13887;57.196;-2.100;2022-12-10T11:09:37;3.39;88.97
22069;DHT22;13887;57.196;-2.100;2022-12-10T11:12:10;3.34;88.89
22069;DHT22;13887;57.196;-2.100;2022-12-10T11:14:47;3.38;89.10
22069;DHT22;13887;57.196;-2.100;2022-12-10T11:17:20;3.36;89.04
22069;DHT22;13887;57.196;-2.100;2022-12-10T11:20:12;3.39;88.89
22069;DHT22;13887;57.196;-2.100;2022-12-10T11:22:55;3.36;89.05
22069;DHT22;13887;57.196;-2.100;2022-12-10T11:30:44;3.40;89.02
22069;DHT22;13887;57.196;-2.100;2022-12-10T11:33:31;3.40;89.08
22069;DHT22;13887;57.196;-2.100;2022-12-10T11:47:56;3.35;90.20
22069;DHT22;13887;57.196;-2.100;2022-12-10T11:50:37;3.35;90.17
22069;DHT22;13887;57.196;-2.100;2022-12-10T11:58:33;3.41;90.97
22069;DHT22;13887;57.196;-2.100;2022-12-10T12:03:51;3.42;90.69
22069;DHT22;13887;57.196;-2.100;2022-12-10T12:09:29;3.46;89.34
22069;DHT22;13887;57.196;-2.100;2022-12-10T12:14:44;3.47;89.43
22069;DHT22;13887;57.196;-2.100;2022-12-10T12:17:19;3.47;90.08
22069;DHT22;13887;57.196;-2.100;2022-12-10T12:19:54;3.43;90.33
22069;DHT22;13887;57.196;-2.100;2022-12-10T12:22:28;3.45;90.34
22069;DHT22;13887;57.196;-2.100;2022-12-10T12:25:06;3.43;90.51
22069;DHT22;13887;57.196;-2.100;2022-12-10T12:27:45;3.42;90.61
22069;DHT22;13887;57.196;-2.100;2022-12-10T12:30:19;3.38;90.88
22069;DHT22;13887;57.196;-2.100;2022-12-10T12:33:25;3.39;90.76
22069;DHT22;13887;57.196;-2.100;2022-12-10T12:36:02;3.39;90.73
22069;DHT22;13887;57.196;-2.100;2022-12-10T12:38:35;3.38;90.66
22069;DHT22;13887;57.196;-2.100;2022-12-10T12:46:44;3.35;90.08
22069;DHT22;13887;57.196;-2.100;2022-12-10T12:52:10;3.28;90.31
22069;DHT22;13887;57.196;-2.100;2022-12-10T12:54:44;3.28;90.41
22069;DHT22;13887;57.196;-2.100;2022-12-10T12:57:16;3.38;90.00
22069;DHT22;13887;57.196;-2.100;2022-12-10T12:59:59;3.41;90.08
22069;DHT22;13887;57.196;-2.100;2022-12-10T13:02:42;3.40;90.21
22069;DHT22;13887;57.196;-2.100;2022-12-10T13:05:35;3.36;90.62
22069;DHT22;13887;57.196;-2.100;2022-12-10T13:10:52;3.42;89.98
22069;DHT22;13887;57.196;-2.100;2022-12-10T13:13:29;3.40;89.83
22069;DHT22;13887;57.196;-2.100;2022-12-10T13:46:26;3.36;88.97
22069;DHT22;13887;57.196;-2.100;2022-12-10T13:49:19;3.38;88.96
22069;DHT22;13887;57.196;-2.100;2022-12-10T13:51:58;3.38;88.99
22069;DHT22;13887;57.196;-2.100;2022-12-10T14:03:24;3.34;88.82
22069;DHT22;13887;57.196;-2.100;2022-12-10T14:08:39;3.34;89.01
22069;DHT22;13887;57.196;-2.100;2022-12-10T14:11:18;3.39;88.87
22069;DHT22;13887;57.196;-2.100;2022-12-10T14:13:51;3.35;88.96
22069;DHT22;13887;57.196;-2.100;2022-12-10T14:16:21;3.31;88.97
22069;DHT22;13887;57.196;-2.100;2022-12-10T14:19:01;3.34;88.91
22069;DHT22;13887;57.196;-2.100;2022-12-10T14:21:38;3.34;88.87
22069;DHT22;13887;57.196;-2.100;2022-12-10T14:24:11;3.39;88.78
22069;DHT22;13887;57.196;-2.100;2022-12-10T14:27:17;3.35;88.69
22069;DHT22;13887;57.196;-2.100;2022-12-10T14:29:50;3.41;88.56
22069;DHT22;13887;57.196;-2.100;2022-12-10T14:32:23;3.41;88.51
22069;DHT22;13887;57.196;-2.100;2022-12-10T14:34:56;3.34;88.59
22069;DHT22;13887;57.196;-2.100;2022-12-10T14:37:28;3.41;88.51
22069;DHT22;13887;57.196;-2.100;2022-12-10T14:39:56;3.39;88.50
22069;DHT22;13887;57.196;-2.100;2022-12-10T14:42:23;3.39;88.47
22069;DHT22;13887;57.196;-2.100;2022-12-10T14:44:59;3.36;88.44
22069;DHT22;13887;57.196;-2.100;2022-12-10T14:47:33;3.41;88.41
22069;DHT22;13887;57.196;-2.100;2022-12-10T14:50:02;3.40;88.39
22069;DHT22;13887;57.196;-2.100;2022-12-10T14:52:40;3.39;88.42
22069;DHT22;13887;57.196;-2.100;2022-12-10T14:55:15;3.39;88.37
22069;DHT22;13887;57.196;-2.100;2022-12-10T14:57:54;3.39;88.40
22069;DHT22;13887;57.196;-2.100;2022-12-10T15:00:22;3.38;88.37
22069;DHT22;13887;57.196;-2.100;2022-12-10T15:02:58;3.39;88.32
22069;DHT22;13887;57.196;-2.100;2022-12-10T15:05:30;3.43;88.12
22069;DHT22;13887;57.196;-2.100;2022-12-10T15:08:02;3.42;88.18
22069;DHT22;13887;57.196;-2.100;2022-12-10T15:10:40;3.43;88.16
22069;DHT22;13887;57.196;-2.100;2022-12-10T15:15:59;3.41;88.23
22069;DHT22;13887;57.196;-2.100;2022-12-10T15:18:31;3.42;88.27
22069;DHT22;13887;57.196;-2.100;2022-12-10T15:21:23;3.43;88.18
22069;DHT22;13887;57.196;-2.100;2022-12-10T15:24:07;3.41;88.33
22069;DHT22;13887;57.196;-2.100;2022-12-10T15:26:34;3.45;88.22
22069;DHT22;13887;57.196;-2.100;2022-12-10T15:31:59;3.52;88.08
22069;DHT22;13887;57.196;-2.100;2022-12-10T15:34:28;3.54;88.12
22069;DHT22;13887;57.196;-2.100;2022-12-10T15:37:01;3.56;88.58
22069;DHT22;13887;57.196;-2.100;2022-12-10T15:39:32;3.59;88.43
22069;DHT22;13887;57.196;-2.100;2022-12-10T15:42:05;3.60;88.21
22069;DHT22;13887;57.196;-2.100;2022-12-10T15:44:38;3.63;88.20
22069;DHT22;13887;57.196;-2.100;2022-12-10T15:49:41;3.67;88.85
22069;DHT22;13887;57.196;-2.100;2022-12-10T15:52:28;3.67;88.80
22069;DHT22;13887;57.196;-2.100;2022-12-10T15:54:57;3.65;89.57
22069;DHT22;13887;57.196;-2.100;2022-12-10T15:57:27;3.62;89.41
22069;DHT22;13887;57.196;-2.100;2022-12-10T15:59:56;3.62;89.44
22069;DHT22;13887;57.196;-2.100;2022-12-10T16:04:59;3.58;89.79
22069;DHT22;13887;57.196;-2.100;2022-12-10T16:07:26;3.63;89.68
22069;DHT22;13887;57.196;-2.100;2022-12-10T16:09:53;3.62;89.76
22069;DHT22;13887;57.196;-2.100;2022-12-10T16:12:20;3.63;89.73
22069;DHT22;13887;57.196;-2.100;2022-12-10T16:14:50;3.64;89.62
22069;DHT22;13887;57.196;-2.100;2022-12-10T16:17:18;3.64;89.70
22069;DHT22;13887;57.196;-2.100;2022-12-10T16:19:45;3.67;89.68
22069;DHT22;13887;57.196;-2.100;2022-12-10T16:22:12;3.68;89.67
22069;DHT22;13887;57.196;-2.100;2022-12-10T16:24:39;3.70;90.08
22069;DHT22;13887;57.196;-2.100;2022-12-10T16:27:14;3.74;89.83
22069;DHT22;13887;57.196;-2.100;2022-12-10T16:29:42;3.73;90.81
22069;DHT22;13887;57.196;-2.100;2022-12-10T16:32:10;3.75;91.00
22069;DHT22;13887;57.196;-2.100;2022-12-10T16:34:40;3.78;90.89
22069;DHT22;13887;57.196;-2.100;2022-12-10T16:37:09;3.79;90.96
22069;DHT22;13887;57.196;-2.100;2022-12-10T16:39:36;3.80;91.17
22069;DHT22;13887;57.196;-2.100;2022-12-10T16:42:03;3.80;91.30
22069;DHT22;13887;57.196;-2.100;2022-12-10T16:44:30;3.79;91.60
22069;DHT22;13887;57.196;-2.100;2022-12-10T16:46:58;3.80;91.61
22069;DHT22;13887;57.196;-2.100;2022-12-10T16:49:25;3.80;91.39
22069;DHT22;13887;57.196;-2.100;2022-12-10T16:51:52;3.80;91.50
22069;DHT22;13887;57.196;-2.100;2022-12-10T16:54:19;3.84;91.67
22069;DHT22;13887;57.196;-2.100;2022-12-10T16:56:46;3.82;92.20
22069;DHT22;13887;57.196;-2.100;2022-12-10T16:59:13;3.82;91.98
22069;DHT22;13887;57.196;-2.100;2022-12-10T17:01:40;3.83;92.11
22069;DHT22;13887;57.196;-2.100;2022-12-10T17:04:08;3.86;91.97
22069;DHT22;13887;57.196;-2.100;2022-12-10T17:06:36;3.86;92.05
22069;DHT22;13887;57.196;-2.100;2022-12-10T17:09:03;3.83;92.14
22069;DHT22;13887;57.196;-2.100;2022-12-10T17:11:41;3.83;91.97
22069;DHT22;13887;57.196;-2.100;2022-12-10T17:14:32;3.82;91.63
22069;DHT22;13887;57.196;-2.100;2022-12-10T17:17:00;3.83;91.95
22069;DHT22;13887;57.196;-2.100;2022-12-10T17:19:29;3.83;91.95
22069;DHT22;13887;57.196;-2.100;2022-12-10T17:21:56;3.80;92.46
22069;DHT22;13887;57.196;-2.100;2022-12-10T17:24:23;3.79;92.66
22069;DHT22;13887;57.196;-2.100;2022-12-10T17:26:51;3.79;92.87
22069;DHT22;13887;57.196;-2.100;2022-12-10T17:29:24;3.75;93.28
22069;DHT22;13887;57.196;-2.100;2022-12-10T17:31:52;3.71;92.99
22069;DHT22;13887;57.196;-2.100;2022-12-10T17:34:19;3.71;93.06
22069;DHT22;13887;57.196;-2.100;2022-12-10T17:36:47;3.71;93.10
22069;DHT22;13887;57.196;-2.100;2022-12-10T17:39:15;3.69;93.00
22069;DHT22;13887;57.196;-2.100;2022-12-10T17:41:48;3.69;93.00
22069;DHT22;13887;57.196;-2.100;2022-12-10T17:44:16;3.68;92.86
22069;DHT22;13887;57.196;-2.100;2022-12-10T17:46:42;3.64;93.02
22069;DHT22;13887;57.196;-2.100;2022-12-10T17:49:13;3.63;92.87
22069;DHT22;13887;57.196;-2.100;2022-12-10T17:51:41;3.60;92.69
22069;DHT22;13887;57.196;-2.100;2022-12-10T17:54:08;3.63;92.37
22069;DHT22;13887;57.196;-2.100;2022-12-10T17:56:35;3.59;92.21
22069;DHT22;13887;57.196;-2.100;2022-12-10T17:59:02;3.59;91.98
22069;DHT22;13887;57.196;-2.100;2022-12-10T18:01:29;3.55;91.96
22069;DHT22;13887;57.196;-2.100;2022-12-10T18:03:57;3.55;91.82
22069;DHT22;13887;57.196;-2.100;2022-12-10T18:06:28;3.53;91.77
22069;DHT22;13887;57.196;-2.100;2022-12-10T18:08:58;3.50;91.62